sensor_id;sensor_type;location;lat;lon;timestamp;P1;durP1;ratioP1;P2;durP2;ratioP2
31974;SDS011;18500;43.618;1.474;2023-04-07T15:35:13;606.90;;;568.42;;
31974;SDS011;18500;43.618;1.474;2023-04-07T15:37:38;658.90;;;616.45;;
31974;SDS011;18500;43.618;1.474;2023-04-07T15:40:04;516.55;;;484.75;;
31974;SDS011;18500;43.618;1.474;2023-04-07T15:42:30;531.22;;;497.63;;
31974;SDS011;18500;43.618;1.474;2023-04-07T15:44:59;514.92;;;483.13;;
31974;SDS011;18500;43.618;1.474;2023-04-07T15:47:25;780.97;;;725.38;;
31974;SDS011;18500;43.618;1.474;2023-04-07T15:49:50;547.15;;;513.53;;
31974;SDS011;18500;43.618;1.474;2023-04-07T15:52:16;833.80;;;773.83;;
31974;SDS011;18500;43.618;1.474;2023-04-07T15:54:41;946.65;;;872.60;;
31974;SDS011;18500;43.618;1.474;2023-04-07T15:57:07;746.15;;;694.40;;
31974;SDS011;18500;43.618;1.474;2023-04-07T15:59:33;875.90;;;811.35;;
31974;SDS011;18500;43.618;1.474;2023-04-07T16:02:00;612.05;;;571.70;;
31974;SDS011;18500;43.618;1.474;2023-04-07T16:04:25;666.35;;;621.30;;
31974;SDS011;18500;43.618;1.474;2023-04-07T16:06:51;787.13;;;732.30;;
31974;SDS011;18500;43.618;1.474;2023-04-07T16:09:17;773.38;;;719.10;;
31974;SDS011;18500;43.618;1.474;2023-04-07T16:11:42;892.70;;;824.78;;
31974;SDS011;18500;43.618;1.474;2023-04-07T16:14:08;884.72;;;819.58;;
31974;SDS011;18500;43.618;1.474;2023-04-07T16:16:34;1002.58;;;919.85;;
31974;SDS011;18500;43.618;1.474;2023-04-07T16:19:00;1009.92;;;924.67;;
31974;SDS011;18500;43.618;1.474;2023-04-07T16:21:26;912.83;;;843.30;;
31974;SDS011;18500;43.618;1.474;2023-04-07T16:23:52;928.72;;;857.00;;
31974;SDS011;18500;43.618;1.474;2023-04-07T16:26:17;775.78;;;720.55;;
31974;SDS011;18500;43.618;1.474;2023-04-07T16:28:43;907.55;;;838.33;;
31974;SDS011;18500;43.618;1.474;2023-04-07T16:31:09;751.80;;;699.03;;
31974;SDS011;18500;43.618;1.474;2023-04-07T16:33:36;638.83;;;596.63;;
31974;SDS011;18500;43.618;1.474;2023-04-07T16:36:02;794.40;;;735.63;;
31974;SDS011;18500;43.618;1.474;2023-04-07T16:38:27;771.70;;;717.08;;
31974;SDS011;18500;43.618;1.474;2023-04-07T16:40:53;748.40;;;696.67;;
31974;SDS011;18500;43.618;1.474;2023-04-07T16:43:19;873.53;;;806.72;;
31974;SDS011;18500;43.618;1.474;2023-04-07T16:45:49;725.05;;;676.22;;
31974;SDS011;18500;43.618;1.474;2023-04-07T16:48:15;759.03;;;705.17;;
31974;SDS011;18500;43.618;1.474;2023-04-07T16:50:41;574.45;;;536.90;;
31974;SDS011;18500;43.618;1.474;2023-04-07T16:53:07;621.72;;;579.00;;
31974;SDS011;18500;43.618;1.474;2023-04-07T16:55:35;732.08;;;681.15;;
31974;SDS011;18500;43.618;1.474;2023-04-07T16:58:02;831.03;;;770.08;;
31974;SDS011;18500;43.618;1.474;2023-04-07T17:00:27;778.00;;;723.78;;
31974;SDS011;18500;43.618;1.474;2023-04-07T17:02:53;945.88;;;871.53;;
31974;SDS011;18500;43.618;1.474;2023-04-07T17:05:19;1010.35;;;925.22;;
31974;SDS011;18500;43.618;1.474;2023-04-07T17:07:45;964.28;;;882.08;;
31974;SDS011;18500;43.618;1.474;2023-04-07T17:10:11;977.05;;;895.55;;
31974;SDS011;18500;43.618;1.474;2023-04-07T17:12:38;1060.80;;;965.92;;
31974;SDS011;18500;43.618;1.474;2023-04-07T17:15:04;1070.35;;;973.45;;
31974;SDS011;18500;43.618;1.474;2023-04-07T17:17:30;1050.50;;;954.90;;
31974;SDS011;18500;43.618;1.474;2023-04-07T17:19:56;1065.97;;;968.05;;
31974;SDS011;18500;43.618;1.474;2023-04-07T17:22:23;1005.58;;;920.30;;
31974;SDS011;18500;43.618;1.474;2023-04-07T17:24:49;1007.15;;;921.78;;
31974;SDS011;18500;43.618;1.474;2023-04-07T17:27:15;977.35;;;895.42;;
31974;SDS011;18500;43.618;1.474;2023-04-07T17:29:42;756.80;;;701.22;;
31974;SDS011;18500;43.618;1.474;2023-04-07T17:32:08;934.33;;;856.78;;
31974;SDS011;18500;43.618;1.474;2023-04-07T17:34:33;1051.90;;;952.95;;
31974;SDS011;18500;43.618;1.474;2023-04-07T17:36:59;1075.82;;;974.22;;
31974;SDS011;18500;43.618;1.474;2023-04-07T17:39:25;740.80;;;678.97;;
31974;SDS011;18500;43.618;1.474;2023-04-07T17:41:50;925.85;;;846.85;;
31974;SDS011;18500;43.618;1.474;2023-04-07T17:44:16;851.63;;;782.00;;
31974;SDS011;18500;43.618;1.474;2023-04-07T17:46:41;668.35;;;620.90;;
31974;SDS011;18500;43.618;1.474;2023-04-07T17:49:07;693.50;;;644.38;;
31974;SDS011;18500;43.618;1.474;2023-04-07T17:51:33;664.03;;;617.03;;
31974;SDS011;18500;43.618;1.474;2023-04-07T17:53:59;692.53;;;641.35;;
31974;SDS011;18500;43.618;1.474;2023-04-07T17:56:24;663.65;;;615.50;;
31974;SDS011;18500;43.618;1.474;2023-04-07T17:58:50;696.85;;;647.13;;
31974;SDS011;18500;43.618;1.474;2023-04-07T18:01:16;751.00;;;696.50;;
31974;SDS011;18500;43.618;1.474;2023-04-07T18:03:41;873.70;;;802.63;;
31974;SDS011;18500;43.618;1.474;2023-04-07T18:06:07;857.53;;;786.88;;
31974;SDS011;18500;43.618;1.474;2023-04-07T18:08:33;872.97;;;801.67;;
31974;SDS011;18500;43.618;1.474;2023-04-07T18:10:59;806.28;;;741.38;;
31974;SDS011;18500;43.618;1.474;2023-04-07T18:13:25;856.20;;;785.53;;
31974;SDS011;18500;43.618;1.474;2023-04-07T18:15:50;876.22;;;802.60;;
31974;SDS011;18500;43.618;1.474;2023-04-07T18:18:16;786.38;;;722.88;;
31974;SDS011;18500;43.618;1.474;2023-04-07T18:20:43;766.55;;;705.35;;
31974;SDS011;18500;43.618;1.474;2023-04-07T18:23:09;730.38;;;673.38;;
31974;SDS011;18500;43.618;1.474;2023-04-07T18:25:35;649.20;;;600.53;;
31974;SDS011;18500;43.618;1.474;2023-04-07T18:28:01;578.20;;;536.15;;
31974;SDS011;18500;43.618;1.474;2023-04-07T18:30:28;949.03;;;871.60;;
31974;SDS011;18500;43.618;1.474;2023-04-07T18:32:53;830.15;;;768.28;;
31974;SDS011;18500;43.618;1.474;2023-04-07T18:35:19;941.40;;;863.63;;
31974;SDS011;18500;43.618;1.474;2023-04-07T18:37:45;852.22;;;787.42;;
31974;SDS011;18500;43.618;1.474;2023-04-07T18:40:11;841.42;;;776.53;;
31974;SDS011;18500;43.618;1.474;2023-04-07T18:42:37;913.85;;;839.75;;
31974;SDS011;18500;43.618;1.474;2023-04-07T18:45:02;878.00;;;808.60;;
31974;SDS011;18500;43.618;1.474;2023-04-07T18:47:28;902.40;;;827.33;;
31974;SDS011;18500;43.618;1.474;2023-04-07T18:49:54;943.60;;;863.15;;
31974;SDS011;18500;43.618;1.474;2023-04-07T18:52:22;944.83;;;864.42;;
31974;SDS011;18500;43.618;1.474;2023-04-07T18:54:49;955.22;;;871.95;;
31974;SDS011;18500;43.618;1.474;2023-04-07T18:57:15;972.47;;;885.60;;
31974;SDS011;18500;43.618;1.474;2023-04-07T18:59:40;976.92;;;886.97;;
31974;SDS011;18500;43.618;1.474;2023-04-07T19:02:07;940.83;;;858.95;;
31974;SDS011;18500;43.618;1.474;2023-04-07T19:04:33;1003.03;;;908.67;;
31974;SDS011;18500;43.618;1.474;2023-04-07T19:06:58;976.53;;;878.25;;
31974;SDS011;18500;43.618;1.474;2023-04-07T19:09:24;1053.45;;;944.88;;
31974;SDS011;18500;43.618;1.474;2023-04-07T19:11:50;1297.25;;;994.95;;
31974;SDS011;18500;43.618;1.474;2023-04-07T19:14:16;1428.20;;;999.90;;
31974;SDS011;18500;43.618;1.474;2023-04-07T19:16:42;1388.90;;;999.90;;
31974;SDS011;18500;43.618;1.474;2023-04-07T19:19:08;1386.80;;;999.90;;
31974;SDS011;18500;43.618;1.474;2023-04-07T19:21:35;1302.95;;;999.90;;
31974;SDS011;18500;43.618;1.474;2023-04-07T19:24:01;1198.72;;;999.90;;
31974;SDS011;18500;43.618;1.474;2023-04-07T19:26:27;1147.80;;;999.90;;
31974;SDS011;18500;43.618;1.474;2023-04-07T19:28:55;1130.28;;;999.40;;
31974;SDS011;18500;43.618;1.474;2023-04-07T19:31:21;1112.53;;;983.03;;
31974;SDS011;18500;43.618;1.474;2023-04-07T19:33:47;1078.63;;;965.08;;
31974;SDS011;18500;43.618;1.474;2023-04-07T19:36:12;1087.25;;;968.25;;
31974;SDS011;18500;43.618;1.474;2023-04-07T19:38:38;1121.20;;;982.50;;
31974;SDS011;18500;43.618;1.474;2023-04-07T19:41:04;1091.10;;;970.03;;
31974;SDS011;18500;43.618;1.474;2023-04-07T19:43:30;1193.72;;;995.90;;
31974;SDS011;18500;43.618;1.474;2023-04-07T19:45:56;1156.60;;;990.25;;
31974;SDS011;18500;43.618;1.474;2023-04-07T19:48:22;1223.85;;;999.42;;
31974;SDS011;18500;43.618;1.474;2023-04-07T19:50:47;1212.20;;;999.90;;
31974;SDS011;18500;43.618;1.474;2023-04-07T19:53:15;1162.35;;;998.65;;
31974;SDS011;18500;43.618;1.474;2023-04-07T19:55:42;1257.22;;;999.90;;
31974;SDS011;18500;43.618;1.474;2023-04-07T19:58:08;1194.05;;;999.90;;
31974;SDS011;18500;43.618;1.474;2023-04-07T20:00:34;1217.85;;;999.90;;
31974;SDS011;18500;43.618;1.474;2023-04-07T20:03:00;1274.40;;;999.90;;
31974;SDS011;18500;43.618;1.474;2023-04-07T20:05:27;1396.00;;;999.90;;
31974;SDS011;18500;43.618;1.474;2023-04-07T20:07:56;1510.78;;;999.90;;
31974;SDS011;18500;43.618;1.474;2023-04-07T20:10:22;1600.38;;;999.90;;
31974;SDS011;18500;43.618;1.474;2023-04-07T20:12:48;1658.22;;;999.90;;
31974;SDS011;18500;43.618;1.474;2023-04-07T20:15:13;1400.60;;;999.90;;
31974;SDS011;18500;43.618;1.474;2023-04-07T20:17:39;1217.20;;;999.90;;
31974;SDS011;18500;43.618;1.474;2023-04-07T20:20:05;1323.70;;;999.90;;
31974;SDS011;18500;43.618;1.474;2023-04-07T20:22:32;1301.78;;;999.90;;
31974;SDS011;18500;43.618;1.474;2023-04-07T20:24:58;1299.90;;;999.90;;
31974;SDS011;18500;43.618;1.474;2023-04-07T20:27:28;1257.18;;;999.90;;
31974;SDS011;18500;43.618;1.474;2023-04-07T20:29:55;1242.00;;;999.90;;
31974;SDS011;18500;43.618;1.474;2023-04-07T20:32:21;1405.28;;;999.90;;
31974;SDS011;18500;43.618;1.474;2023-04-07T20:34:47;1103.93;;;992.33;;
31974;SDS011;18500;43.618;1.474;2023-04-07T20:37:16;1063.47;;;961.05;;
31974;SDS011;18500;43.618;1.474;2023-04-07T20:39:42;1117.38;;;998.65;;
31974;SDS011;18500;43.618;1.474;2023-04-07T20:42:08;1133.38;;;999.90;;
31974;SDS011;18500;43.618;1.474;2023-04-07T20:44:33;1102.43;;;985.15;;
31974;SDS011;18500;43.618;1.474;2023-04-07T20:47:05;1114.13;;;968.60;;
31974;SDS011;18500;43.618;1.474;2023-04-07T20:49:34;1356.57;;;996.67;;
31974;SDS011;18500;43.618;1.474;2023-04-07T20:52:01;1514.50;;;999.90;;
31974;SDS011;18500;43.618;1.474;2023-04-07T20:54:27;1548.40;;;999.90;;
31974;SDS011;18500;43.618;1.474;2023-04-07T20:56:54;1562.43;;;999.90;;
31974;SDS011;18500;43.618;1.474;2023-04-07T20:59:20;1533.40;;;999.90;;
31974;SDS011;18500;43.618;1.474;2023-04-07T21:01:45;1531.28;;;999.90;;
31974;SDS011;18500;43.618;1.474;2023-04-07T21:04:11;1471.20;;;999.90;;
31974;SDS011;18500;43.618;1.474;2023-04-07T21:06:37;1486.15;;;999.90;;
31974;SDS011;18500;43.618;1.474;2023-04-07T21:09:02;1579.18;;;999.90;;
31974;SDS011;18500;43.618;1.474;2023-04-07T21:11:29;1598.57;;;999.90;;
31974;SDS011;18500;43.618;1.474;2023-04-07T21:13:55;1571.70;;;999.90;;
31974;SDS011;18500;43.618;1.474;2023-04-07T21:16:21;1552.65;;;999.90;;
31974;SDS011;18500;43.618;1.474;2023-04-07T21:18:46;1962.22;;;999.90;;
